sensor_id;sensor_type;location;lat;lon;timestamp;P1;durP1;ratioP1;P2;durP2;ratioP2
31537;SDS011;18147;51.952;6.146;2024-02-26T00:02:25;9.80;;;6.78;;
31537;SDS011;18147;51.952;6.146;2024-02-26T00:04:50;9.65;;;6.85;;
31537;SDS011;18147;51.952;6.146;2024-02-26T00:07:16;9.30;;;6.05;;
31537;SDS011;18147;51.952;6.146;2024-02-26T00:09:41;11.13;;;6.15;;
31537;SDS011;18147;51.952;6.146;2024-02-26T00:12:07;9.15;;;6.28;;
31537;SDS011;18147;51.952;6.146;2024-02-26T00:14:32;9.13;;;6.82;;
31537;SDS011;18147;51.952;6.146;2024-02-26T00:16:58;10.45;;;7.57;;
31537;SDS011;18147;51.952;6.146;2024-02-26T00:19:23;12.00;;;7.63;;
31537;SDS011;18147;51.952;6.146;2024-02-26T00:21:49;11.10;;;7.45;;
31537;SDS011;18147;51.952;6.146;2024-02-26T00:24:14;13.43;;;7.18;;
31537;SDS011;18147;51.952;6.146;2024-02-26T00:26:40;9.80;;;7.28;;
31537;SDS011;18147;51.952;6.146;2024-02-26T00:29:05;12.90;;;7.93;;
31537;SDS011;18147;51.952;6.146;2024-02-26T00:31:31;10.90;;;8.82;;
31537;SDS011;18147;51.952;6.146;2024-02-26T00:33:56;11.25;;;7.82;;
31537;SDS011;18147;51.952;6.146;2024-02-26T00:36:22;12.27;;;9.05;;
31537;SDS011;18147;51.952;6.146;2024-02-26T00:38:47;10.98;;;8.65;;
31537;SDS011;18147;51.952;6.146;2024-02-26T00:41:19;14.80;;;9.20;;
31537;SDS011;18147;51.952;6.146;2024-02-26T00:43:45;12.93;;;8.82;;
31537;SDS011;18147;51.952;6.146;2024-02-26T00:46:11;10.88;;;8.52;;
31537;SDS011;18147;51.952;6.146;2024-02-26T00:48:37;12.43;;;8.65;;
31537;SDS011;18147;51.952;6.146;2024-02-26T00:51:02;12.00;;;8.73;;
31537;SDS011;18147;51.952;6.146;2024-02-26T00:53:30;10.45;;;7.80;;
31537;SDS011;18147;51.952;6.146;2024-02-26T00:55:56;10.10;;;7.18;;
31537;SDS011;18147;51.952;6.146;2024-02-26T00:58:21;7.97;;;7.15;;
31537;SDS011;18147;51.952;6.146;2024-02-26T01:00:47;10.07;;;7.35;;
31537;SDS011;18147;51.952;6.146;2024-02-26T01:03:12;10.32;;;6.32;;
31537;SDS011;18147;51.952;6.146;2024-02-26T01:05:37;8.57;;;6.53;;
31537;SDS011;18147;51.952;6.146;2024-02-26T01:08:03;9.35;;;6.95;;
31537;SDS011;18147;51.952;6.146;2024-02-26T01:10:29;11.55;;;7.32;;
31537;SDS011;18147;51.952;6.146;2024-02-26T01:12:54;9.93;;;6.00;;
31537;SDS011;18147;51.952;6.146;2024-02-26T01:15:20;9.25;;;6.70;;
31537;SDS011;18147;51.952;6.146;2024-02-26T01:17:49;8.05;;;6.72;;
31537;SDS011;18147;51.952;6.146;2024-02-26T01:20:15;11.07;;;7.13;;
31537;SDS011;18147;51.952;6.146;2024-02-26T01:22:41;11.85;;;6.55;;
31537;SDS011;18147;51.952;6.146;2024-02-26T01:25:07;10.10;;;6.50;;
31537;SDS011;18147;51.952;6.146;2024-02-26T01:27:34;8.20;;;6.40;;
31537;SDS011;18147;51.952;6.146;2024-02-26T01:30:00;9.38;;;6.63;;
31537;SDS011;18147;51.952;6.146;2024-02-26T01:32:26;9.27;;;6.90;;
31537;SDS011;18147;51.952;6.146;2024-02-26T01:34:51;12.93;;;6.45;;
31537;SDS011;18147;51.952;6.146;2024-02-26T01:37:17;10.25;;;6.55;;
31537;SDS011;18147;51.952;6.146;2024-02-26T01:39:42;10.77;;;7.35;;
31537;SDS011;18147;51.952;6.146;2024-02-26T01:42:07;10.60;;;5.90;;
31537;SDS011;18147;51.952;6.146;2024-02-26T01:44:33;9.50;;;6.78;;
31537;SDS011;18147;51.952;6.146;2024-02-26T01:46:58;8.82;;;6.35;;
31537;SDS011;18147;51.952;6.146;2024-02-26T01:49:26;9.80;;;6.45;;
31537;SDS011;18147;51.952;6.146;2024-02-26T01:51:52;10.85;;;6.65;;
31537;SDS011;18147;51.952;6.146;2024-02-26T01:54:18;10.63;;;6.25;;
31537;SDS011;18147;51.952;6.146;2024-02-26T01:56:43;7.97;;;5.82;;
31537;SDS011;18147;51.952;6.146;2024-02-26T01:59:09;11.13;;;5.90;;
31537;SDS011;18147;51.952;6.146;2024-02-26T02:01:35;6.93;;;5.93;;
31537;SDS011;18147;51.952;6.146;2024-02-26T02:04:01;7.57;;;5.20;;
31537;SDS011;18147;51.952;6.146;2024-02-26T02:06:27;10.05;;;5.78;;
31537;SDS011;18147;51.952;6.146;2024-02-26T02:08:55;7.00;;;5.60;;
31537;SDS011;18147;51.952;6.146;2024-02-26T02:11:21;9.63;;;5.97;;
31537;SDS011;18147;51.952;6.146;2024-02-26T02:13:47;10.63;;;5.80;;
31537;SDS011;18147;51.952;6.146;2024-02-26T02:16:13;9.57;;;6.10;;
31537;SDS011;18147;51.952;6.146;2024-02-26T02:18:38;8.18;;;6.55;;
31537;SDS011;18147;51.952;6.146;2024-02-26T02:21:04;9.00;;;5.40;;
31537;SDS011;18147;51.952;6.146;2024-02-26T02:23:29;8.75;;;5.55;;
31537;SDS011;18147;51.952;6.146;2024-02-26T02:25:56;7.78;;;5.80;;
31537;SDS011;18147;51.952;6.146;2024-02-26T02:28:23;9.05;;;6.20;;
31537;SDS011;18147;51.952;6.146;2024-02-26T02:30:51;7.03;;;5.78;;
31537;SDS011;18147;51.952;6.146;2024-02-26T02:33:16;8.05;;;6.10;;
31537;SDS011;18147;51.952;6.146;2024-02-26T02:35:42;9.70;;;5.82;;
31537;SDS011;18147;51.952;6.146;2024-02-26T02:38:07;9.02;;;6.00;;
31537;SDS011;18147;51.952;6.146;2024-02-26T02:40:33;11.65;;;5.95;;
31537;SDS011;18147;51.952;6.146;2024-02-26T02:42:58;7.57;;;5.65;;
31537;SDS011;18147;51.952;6.146;2024-02-26T02:45:25;10.98;;;6.30;;
31537;SDS011;18147;51.952;6.146;2024-02-26T02:47:50;9.80;;;5.82;;
31537;SDS011;18147;51.952;6.146;2024-02-26T02:50:16;6.70;;;5.00;;
31537;SDS011;18147;51.952;6.146;2024-02-26T02:52:41;7.57;;;5.40;;
31537;SDS011;18147;51.952;6.146;2024-02-26T02:55:07;10.90;;;5.80;;
31537;SDS011;18147;51.952;6.146;2024-02-26T02:57:32;7.00;;;5.47;;
31537;SDS011;18147;51.952;6.146;2024-02-26T02:59:58;7.13;;;4.53;;
31537;SDS011;18147;51.952;6.146;2024-02-26T03:02:23;6.63;;;5.22;;
31537;SDS011;18147;51.952;6.146;2024-02-26T03:04:50;7.07;;;5.55;;
31537;SDS011;18147;51.952;6.146;2024-02-26T03:07:15;10.80;;;5.22;;
31537;SDS011;18147;51.952;6.146;2024-02-26T03:09:41;10.48;;;6.10;;
31537;SDS011;18147;51.952;6.146;2024-02-26T03:12:06;6.72;;;5.13;;
31537;SDS011;18147;51.952;6.146;2024-02-26T03:14:32;8.07;;;5.80;;
31537;SDS011;18147;51.952;6.146;2024-02-26T03:16:57;6.35;;;5.00;;
31537;SDS011;18147;51.952;6.146;2024-02-26T03:19:23;6.78;;;5.13;;
31537;SDS011;18147;51.952;6.146;2024-02-26T03:21:48;9.05;;;5.00;;
31537;SDS011;18147;51.952;6.146;2024-02-26T03:24:14;7.60;;;4.90;;
31537;SDS011;18147;51.952;6.146;2024-02-26T03:26:39;6.63;;;5.80;;
31537;SDS011;18147;51.952;6.146;2024-02-26T03:29:05;13.05;;;5.25;;
31537;SDS011;18147;51.952;6.146;2024-02-26T03:31:31;7.85;;;5.93;;
31537;SDS011;18147;51.952;6.146;2024-02-26T03:33:56;6.90;;;5.47;;
31537;SDS011;18147;51.952;6.146;2024-02-26T03:36:22;9.65;;;5.45;;
31537;SDS011;18147;51.952;6.146;2024-02-26T03:38:47;7.22;;;5.60;;
31537;SDS011;18147;51.952;6.146;2024-02-26T03:41:13;10.15;;;5.63;;
31537;SDS011;18147;51.952;6.146;2024-02-26T03:43:39;8.10;;;5.93;;
31537;SDS011;18147;51.952;6.146;2024-02-26T03:46:08;9.02;;;6.65;;
31537;SDS011;18147;51.952;6.146;2024-02-26T03:48:34;9.65;;;6.00;;
31537;SDS011;18147;51.952;6.146;2024-02-26T03:51:00;9.48;;;6.40;;
31537;SDS011;18147;51.952;6.146;2024-02-26T03:53:25;8.48;;;6.20;;
31537;SDS011;18147;51.952;6.146;2024-02-26T03:55:51;7.80;;;6.22;;
31537;SDS011;18147;51.952;6.146;2024-02-26T03:58:17;12.65;;;6.63;;
31537;SDS011;18147;51.952;6.146;2024-02-26T04:00:43;9.27;;;6.60;;
31537;SDS011;18147;51.952;6.146;2024-02-26T04:03:09;9.40;;;6.72;;
31537;SDS011;18147;51.952;6.146;2024-02-26T04:05:35;10.25;;;6.35;;
31537;SDS011;18147;51.952;6.146;2024-02-26T04:08:00;9.13;;;6.95;;
31537;SDS011;18147;51.952;6.146;2024-02-26T04:10:26;10.68;;;6.88;;
31537;SDS011;18147;51.952;6.146;2024-02-26T04:12:51;11.68;;;7.05;;
31537;SDS011;18147;51.952;6.146;2024-02-26T04:15:17;10.65;;;7.28;;
31537;SDS011;18147;51.952;6.146;2024-02-26T04:17:42;13.13;;;7.43;;
31537;SDS011;18147;51.952;6.146;2024-02-26T04:20:12;10.27;;;7.32;;
31537;SDS011;18147;51.952;6.146;2024-02-26T04:22:40;10.25;;;7.70;;
31537;SDS011;18147;51.952;6.146;2024-02-26T04:25:06;15.73;;;7.55;;
31537;SDS011;18147;51.952;6.146;2024-02-26T04:27:32;12.65;;;7.47;;
31537;SDS011;18147;51.952;6.146;2024-02-26T04:29:57;13.13;;;8.45;;
31537;SDS011;18147;51.952;6.146;2024-02-26T04:32:23;11.52;;;7.88;;
31537;SDS011;18147;51.952;6.146;2024-02-26T04:34:48;11.60;;;8.02;;
31537;SDS011;18147;51.952;6.146;2024-02-26T04:37:13;14.02;;;8.10;;
31537;SDS011;18147;51.952;6.146;2024-02-26T04:39:39;11.10;;;8.48;;
31537;SDS011;18147;51.952;6.146;2024-02-26T04:42:04;12.93;;;8.70;;
31537;SDS011;18147;51.952;6.146;2024-02-26T04:44:30;12.98;;;8.45;;
31537;SDS011;18147;51.952;6.146;2024-02-26T04:46:55;10.98;;;7.95;;
31537;SDS011;18147;51.952;6.146;2024-02-26T04:49:21;13.07;;;9.93;;
31537;SDS011;18147;51.952;6.146;2024-02-26T04:51:47;12.88;;;9.25;;
31537;SDS011;18147;51.952;6.146;2024-02-26T04:54:13;13.23;;;8.40;;
31537;SDS011;18147;51.952;6.146;2024-02-26T04:56:38;13.85;;;8.57;;
31537;SDS011;18147;51.952;6.146;2024-02-26T04:59:04;12.85;;;8.82;;
31537;SDS011;18147;51.952;6.146;2024-02-26T05:01:29;10.77;;;7.82;;
31537;SDS011;18147;51.952;6.146;2024-02-26T05:03:55;11.40;;;8.35;;
31537;SDS011;18147;51.952;6.146;2024-02-26T05:06:20;12.57;;;7.88;;
31537;SDS011;18147;51.952;6.146;2024-02-26T05:08:46;9.52;;;7.40;;
31537;SDS011;18147;51.952;6.146;2024-02-26T05:11:11;12.18;;;8.55;;
31537;SDS011;18147;51.952;6.146;2024-02-26T05:13:37;13.40;;;8.57;;
31537;SDS011;18147;51.952;6.146;2024-02-26T05:16:02;16.60;;;8.32;;
31537;SDS011;18147;51.952;6.146;2024-02-26T05:18:28;9.95;;;7.90;;
31537;SDS011;18147;51.952;6.146;2024-02-26T05:20:53;10.02;;;8.23;;
31537;SDS011;18147;51.952;6.146;2024-02-26T05:23:19;15.13;;;8.00;;
31537;SDS011;18147;51.952;6.146;2024-02-26T05:25:44;13.82;;;7.97;;
31537;SDS011;18147;51.952;6.146;2024-02-26T05:28:12;12.82;;;8.13;;
31537;SDS011;18147;51.952;6.146;2024-02-26T05:30:37;11.65;;;8.73;;
31537;SDS011;18147;51.952;6.146;2024-02-26T05:33:05;10.52;;;7.82;;
31537;SDS011;18147;51.952;6.146;2024-02-26T05:35:30;11.68;;;7.70;;
31537;SDS011;18147;51.952;6.146;2024-02-26T05:37:55;12.38;;;8.07;;
31537;SDS011;18147;51.952;6.146;2024-02-26T05:40:21;12.80;;;8.25;;
31537;SDS011;18147;51.952;6.146;2024-02-26T05:42:46;13.93;;;8.93;;
31537;SDS011;18147;51.952;6.146;2024-02-26T05:45:12;14.85;;;9.82;;
31537;SDS011;18147;51.952;6.146;2024-02-26T05:47:37;15.65;;;8.80;;
31537;SDS011;18147;51.952;6.146;2024-02-26T05:50:08;17.50;;;10.35;;
31537;SDS011;18147;51.952;6.146;2024-02-26T05:52:36;14.70;;;9.32;;
31537;SDS011;18147;51.952;6.146;2024-02-26T05:55:03;15.63;;;9.82;;
31537;SDS011;18147;51.952;6.146;2024-02-26T05:57:29;14.88;;;9.98;;
31537;SDS011;18147;51.952;6.146;2024-02-26T05:59:55;16.15;;;10.65;;
31537;SDS011;18147;51.952;6.146;2024-02-26T06:02:20;15.85;;;10.30;;
31537;SDS011;18147;51.952;6.146;2024-02-26T06:04:46;15.23;;;10.18;;
31537;SDS011;18147;51.952;6.146;2024-02-26T06:07:12;17.33;;;11.20;;
31537;SDS011;18147;51.952;6.146;2024-02-26T06:09:37;15.68;;;10.07;;
31537;SDS011;18147;51.952;6.146;2024-02-26T06:12:03;16.63;;;10.73;;
31537;SDS011;18147;51.952;6.146;2024-02-26T06:14:29;14.73;;;10.85;;
31537;SDS011;18147;51.952;6.146;2024-02-26T06:16:54;19.55;;;9.70;;
31537;SDS011;18147;51.952;6.146;2024-02-26T06:19:20;16.58;;;10.73;;
31537;SDS011;18147;51.952;6.146;2024-02-26T06:21:45;17.52;;;11.85;;
31537;SDS011;18147;51.952;6.146;2024-02-26T06:24:11;16.02;;;10.50;;
31537;SDS011;18147;51.952;6.146;2024-02-26T06:26:36;16.20;;;11.50;;
31537;SDS011;18147;51.952;6.146;2024-02-26T06:29:02;16.52;;;12.07;;
31537;SDS011;18147;51.952;6.146;2024-02-26T06:31:27;17.80;;;9.90;;
31537;SDS011;18147;51.952;6.146;2024-02-26T06:33:53;16.80;;;11.38;;
31537;SDS011;18147;51.952;6.146;2024-02-26T06:36:19;18.20;;;11.52;;
31537;SDS011;18147;51.952;6.146;2024-02-26T06:38:44;17.92;;;12.38;;
31537;SDS011;18147;51.952;6.146;2024-02-26T06:41:10;16.13;;;10.77;;
31537;SDS011;18147;51.952;6.146;2024-02-26T06:43:36;16.13;;;11.45;;
31537;SDS011;18147;51.952;6.146;2024-02-26T06:46:02;15.25;;;10.73;;
31537;SDS011;18147;51.952;6.146;2024-02-26T06:48:27;19.15;;;11.93;;
31537;SDS011;18147;51.952;6.146;2024-02-26T06:50:53;17.58;;;11.25;;
31537;SDS011;18147;51.952;6.146;2024-02-26T06:53:18;15.25;;;10.52;;
31537;SDS011;18147;51.952;6.146;2024-02-26T06:55:44;17.00;;;10.43;;
31537;SDS011;18147;51.952;6.146;2024-02-26T06:58:09;17.70;;;10.75;;
31537;SDS011;18147;51.952;6.146;2024-02-26T07:00:35;18.25;;;10.82;;
31537;SDS011;18147;51.952;6.146;2024-02-26T07:03:00;16.55;;;9.82;;
31537;SDS011;18147;51.952;6.146;2024-02-26T07:05:26;21.30;;;12.07;;
31537;SDS011;18147;51.952;6.146;2024-02-26T07:07:52;19.50;;;11.13;;
31537;SDS011;18147;51.952;6.146;2024-02-26T07:10:18;14.25;;;9.65;;
31537;SDS011;18147;51.952;6.146;2024-02-26T07:12:43;17.17;;;11.05;;
31537;SDS011;18147;51.952;6.146;2024-02-26T07:15:09;15.45;;;9.98;;
31537;SDS011;18147;51.952;6.146;2024-02-26T07:17:35;16.95;;;11.82;;
31537;SDS011;18147;51.952;6.146;2024-02-26T07:20:01;22.40;;;11.30;;
31537;SDS011;18147;51.952;6.146;2024-02-26T07:22:29;13.88;;;10.32;;
31537;SDS011;18147;51.952;6.146;2024-02-26T07:24:55;16.02;;;11.57;;
31537;SDS011;18147;51.952;6.146;2024-02-26T07:27:21;15.10;;;10.75;;
31537;SDS011;18147;51.952;6.146;2024-02-26T07:29:46;16.88;;;11.00;;
31537;SDS011;18147;51.952;6.146;2024-02-26T07:32:12;19.92;;;11.50;;
31537;SDS011;18147;51.952;6.146;2024-02-26T07:34:37;19.08;;;10.85;;
31537;SDS011;18147;51.952;6.146;2024-02-26T07:37:06;18.33;;;12.00;;
31537;SDS011;18147;51.952;6.146;2024-02-26T07:39:32;19.30;;;12.88;;
31537;SDS011;18147;51.952;6.146;2024-02-26T07:41:58;21.85;;;13.35;;
31537;SDS011;18147;51.952;6.146;2024-02-26T07:44:23;17.60;;;11.85;;
31537;SDS011;18147;51.952;6.146;2024-02-26T07:46:49;23.25;;;13.13;;
31537;SDS011;18147;51.952;6.146;2024-02-26T07:49:14;18.20;;;11.98;;
31537;SDS011;18147;51.952;6.146;2024-02-26T07:51:40;17.23;;;12.75;;
31537;SDS011;18147;51.952;6.146;2024-02-26T07:54:05;22.80;;;13.95;;
31537;SDS011;18147;51.952;6.146;2024-02-26T07:56:31;20.60;;;13.55;;
31537;SDS011;18147;51.952;6.146;2024-02-26T07:58:56;24.48;;;15.07;;
31537;SDS011;18147;51.952;6.146;2024-02-26T08:01:22;21.15;;;13.82;;
31537;SDS011;18147;51.952;6.146;2024-02-26T08:03:48;23.98;;;15.50;;
31537;SDS011;18147;51.952;6.146;2024-02-26T08:06:13;26.58;;;15.93;;
31537;SDS011;18147;51.952;6.146;2024-02-26T08:08:39;28.50;;;17.48;;
31537;SDS011;18147;51.952;6.146;2024-02-26T08:11:04;24.40;;;15.70;;
31537;SDS011;18147;51.952;6.146;2024-02-26T08:13:30;28.27;;;17.27;;
31537;SDS011;18147;51.952;6.146;2024-02-26T08:15:56;28.33;;;17.70;;
31537;SDS011;18147;51.952;6.146;2024-02-26T08:18:21;28.23;;;17.17;;
31537;SDS011;18147;51.952;6.146;2024-02-26T08:20:47;28.10;;;16.70;;
31537;SDS011;18147;51.952;6.146;2024-02-26T08:23:14;30.30;;;19.15;;
31537;SDS011;18147;51.952;6.146;2024-02-26T08:25:39;33.85;;;19.05;;
31537;SDS011;18147;51.952;6.146;2024-02-26T08:28:04;31.48;;;19.80;;
31537;SDS011;18147;51.952;6.146;2024-02-26T08:30:30;29.30;;;18.63;;
31537;SDS011;18147;51.952;6.146;2024-02-26T08:32:56;36.40;;;20.55;;
31537;SDS011;18147;51.952;6.146;2024-02-26T08:35:21;35.63;;;21.15;;
31537;SDS011;18147;51.952;6.146;2024-02-26T08:37:47;36.88;;;20.05;;
31537;SDS011;18147;51.952;6.146;2024-02-26T08:40:13;37.40;;;22.15;;
31537;SDS011;18147;51.952;6.146;2024-02-26T08:42:39;34.75;;;20.25;;
31537;SDS011;18147;51.952;6.146;2024-02-26T08:45:04;34.65;;;20.65;;
31537;SDS011;18147;51.952;6.146;2024-02-26T08:47:30;37.35;;;21.25;;
31537;SDS011;18147;51.952;6.146;2024-02-26T08:49:55;37.10;;;22.00;;
31537;SDS011;18147;51.952;6.146;2024-02-26T08:52:21;43.03;;;22.95;;
31537;SDS011;18147;51.952;6.146;2024-02-26T08:54:46;35.75;;;19.90;;
31537;SDS011;18147;51.952;6.146;2024-02-26T08:57:12;30.13;;;18.50;;
31537;SDS011;18147;51.952;6.146;2024-02-26T08:59:38;33.83;;;20.40;;
31537;SDS011;18147;51.952;6.146;2024-02-26T09:02:03;39.92;;;22.67;;
31537;SDS011;18147;51.952;6.146;2024-02-26T09:04:28;42.22;;;22.33;;
31537;SDS011;18147;51.952;6.146;2024-02-26T09:06:54;39.92;;;21.73;;
31537;SDS011;18147;51.952;6.146;2024-02-26T09:09:19;41.08;;;21.80;;
31537;SDS011;18147;51.952;6.146;2024-02-26T09:11:47;39.08;;;19.83;;
31537;SDS011;18147;51.952;6.146;2024-02-26T09:14:13;35.38;;;20.63;;
31537;SDS011;18147;51.952;6.146;2024-02-26T09:16:39;41.72;;;20.50;;
31537;SDS011;18147;51.952;6.146;2024-02-26T09:19:04;33.80;;;19.55;;
31537;SDS011;18147;51.952;6.146;2024-02-26T09:21:29;39.60;;;19.80;;
31537;SDS011;18147;51.952;6.146;2024-02-26T09:23:55;30.25;;;17.35;;
31537;SDS011;18147;51.952;6.146;2024-02-26T09:26:21;34.25;;;18.05;;
31537;SDS011;18147;51.952;6.146;2024-02-26T09:28:46;34.58;;;18.00;;
31537;SDS011;18147;51.952;6.146;2024-02-26T09:31:12;31.60;;;19.05;;
31537;SDS011;18147;51.952;6.146;2024-02-26T09:33:37;35.92;;;19.92;;
31537;SDS011;18147;51.952;6.146;2024-02-26T09:36:03;35.60;;;19.38;;
31537;SDS011;18147;51.952;6.146;2024-02-26T09:38:29;37.85;;;18.63;;
31537;SDS011;18147;51.952;6.146;2024-02-26T09:40:58;30.98;;;17.77;;
31537;SDS011;18147;51.952;6.146;2024-02-26T09:43:24;33.55;;;18.05;;
31537;SDS011;18147;51.952;6.146;2024-02-26T09:45:54;33.60;;;17.48;;
31537;SDS011;18147;51.952;6.146;2024-02-26T09:48:19;35.40;;;18.38;;
31537;SDS011;18147;51.952;6.146;2024-02-26T09:50:47;30.42;;;16.40;;
31537;SDS011;18147;51.952;6.146;2024-02-26T09:53:13;33.00;;;17.23;;
31537;SDS011;18147;51.952;6.146;2024-02-26T09:55:40;33.35;;;17.17;;
31537;SDS011;18147;51.952;6.146;2024-02-26T09:58:06;27.73;;;15.80;;
31537;SDS011;18147;51.952;6.146;2024-02-26T10:00:32;31.50;;;16.50;;
31537;SDS011;18147;51.952;6.146;2024-02-26T10:03:03;32.50;;;16.92;;
31537;SDS011;18147;51.952;6.146;2024-02-26T10:05:30;37.47;;;18.83;;
31537;SDS011;18147;51.952;6.146;2024-02-26T10:07:57;35.40;;;17.63;;
31537;SDS011;18147;51.952;6.146;2024-02-26T10:10:23;34.35;;;16.88;;
31537;SDS011;18147;51.952;6.146;2024-02-26T10:12:49;35.53;;;17.08;;
31537;SDS011;18147;51.952;6.146;2024-02-26T10:15:14;32.30;;;18.27;;
31537;SDS011;18147;51.952;6.146;2024-02-26T10:17:40;41.53;;;20.33;;
31537;SDS011;18147;51.952;6.146;2024-02-26T10:20:16;43.80;;;20.17;;
31537;SDS011;18147;51.952;6.146;2024-02-26T10:22:43;41.65;;;19.88;;
31537;SDS011;18147;51.952;6.146;2024-02-26T10:25:12;41.55;;;19.48;;
31537;SDS011;18147;51.952;6.146;2024-02-26T10:27:39;40.30;;;19.67;;
31537;SDS011;18147;51.952;6.146;2024-02-26T10:30:16;45.90;;;21.88;;
31537;SDS011;18147;51.952;6.146;2024-02-26T10:32:44;48.47;;;21.77;;
31537;SDS011;18147;51.952;6.146;2024-02-26T10:35:10;53.40;;;23.38;;
31537;SDS011;18147;51.952;6.146;2024-02-26T10:37:36;45.65;;;22.80;;
31537;SDS011;18147;51.952;6.146;2024-02-26T10:40:01;45.92;;;21.70;;
31537;SDS011;18147;51.952;6.146;2024-02-26T10:42:28;43.83;;;21.50;;
31537;SDS011;18147;51.952;6.146;2024-02-26T10:44:53;52.42;;;24.88;;
31537;SDS011;18147;51.952;6.146;2024-02-26T10:47:19;47.13;;;23.00;;
31537;SDS011;18147;51.952;6.146;2024-02-26T10:49:48;57.95;;;25.13;;
31537;SDS011;18147;51.952;6.146;2024-02-26T10:52:15;53.38;;;23.65;;
31537;SDS011;18147;51.952;6.146;2024-02-26T10:54:41;53.92;;;24.90;;
31537;SDS011;18147;51.952;6.146;2024-02-26T10:57:09;51.58;;;24.38;;
31537;SDS011;18147;51.952;6.146;2024-02-26T10:59:36;51.08;;;24.67;;
31537;SDS011;18147;51.952;6.146;2024-02-26T11:02:03;56.53;;;24.83;;
31537;SDS011;18147;51.952;6.146;2024-02-26T11:04:29;52.50;;;25.42;;
31537;SDS011;18147;51.952;6.146;2024-02-26T11:06:56;54.58;;;25.50;;
31537;SDS011;18147;51.952;6.146;2024-02-26T11:09:22;63.33;;;25.80;;
31537;SDS011;18147;51.952;6.146;2024-02-26T11:11:49;51.70;;;25.35;;
31537;SDS011;18147;51.952;6.146;2024-02-26T11:14:19;54.67;;;25.63;;
31537;SDS011;18147;51.952;6.146;2024-02-26T11:16:46;54.47;;;25.83;;
31537;SDS011;18147;51.952;6.146;2024-02-26T11:19:12;61.08;;;27.30;;
31537;SDS011;18147;51.952;6.146;2024-02-26T11:21:39;66.15;;;29.27;;
31537;SDS011;18147;51.952;6.146;2024-02-26T11:24:14;61.65;;;28.63;;
31537;SDS011;18147;51.952;6.146;2024-02-26T11:26:50;58.88;;;26.70;;
31537;SDS011;18147;51.952;6.146;2024-02-26T11:29:24;56.78;;;26.95;;
31537;SDS011;18147;51.952;6.146;2024-02-26T11:31:52;57.90;;;25.83;;
31537;SDS011;18147;51.952;6.146;2024-02-26T11:34:18;59.22;;;27.80;;
31537;SDS011;18147;51.952;6.146;2024-02-26T11:36:43;52.88;;;24.98;;
31537;SDS011;18147;51.952;6.146;2024-02-26T11:39:11;52.50;;;24.23;;
31537;SDS011;18147;51.952;6.146;2024-02-26T11:41:38;53.17;;;23.88;;
31537;SDS011;18147;51.952;6.146;2024-02-26T11:44:03;50.15;;;23.00;;
31537;SDS011;18147;51.952;6.146;2024-02-26T11:46:38;46.08;;;24.02;;
31537;SDS011;18147;51.952;6.146;2024-02-26T11:51:51;43.63;;;21.17;;
31537;SDS011;18147;51.952;6.146;2024-02-26T12:00:02;42.20;;;21.23;;
31537;SDS011;18147;51.952;6.146;2024-02-26T12:05:02;38.17;;;19.45;;
31537;SDS011;18147;51.952;6.146;2024-02-26T12:07:27;42.30;;;20.63;;
31537;SDS011;18147;51.952;6.146;2024-02-26T12:09:56;37.28;;;17.95;;
31537;SDS011;18147;51.952;6.146;2024-02-26T12:12:41;38.35;;;19.38;;
31537;SDS011;18147;51.952;6.146;2024-02-26T12:15:07;33.13;;;17.60;;
31537;SDS011;18147;51.952;6.146;2024-02-26T12:17:33;31.20;;;17.15;;
31537;SDS011;18147;51.952;6.146;2024-02-26T12:20:10;37.60;;;18.25;;
31537;SDS011;18147;51.952;6.146;2024-02-26T12:22:36;36.05;;;19.10;;
31537;SDS011;18147;51.952;6.146;2024-02-26T12:25:04;31.48;;;17.80;;
31537;SDS011;18147;51.952;6.146;2024-02-26T12:27:30;36.17;;;18.92;;
31537;SDS011;18147;51.952;6.146;2024-02-26T12:29:56;33.22;;;17.00;;
31537;SDS011;18147;51.952;6.146;2024-02-26T12:32:21;30.75;;;16.08;;
31537;SDS011;18147;51.952;6.146;2024-02-26T12:34:48;25.10;;;14.20;;
31537;SDS011;18147;51.952;6.146;2024-02-26T12:37:15;31.50;;;16.52;;
31537;SDS011;18147;51.952;6.146;2024-02-26T12:39:41;22.10;;;13.95;;
31537;SDS011;18147;51.952;6.146;2024-02-26T12:42:07;29.38;;;15.88;;
31537;SDS011;18147;51.952;6.146;2024-02-26T12:44:33;34.53;;;15.50;;
31537;SDS011;18147;51.952;6.146;2024-02-26T12:47:02;25.02;;;14.30;;
31537;SDS011;18147;51.952;6.146;2024-02-26T12:49:29;26.63;;;13.52;;
31537;SDS011;18147;51.952;6.146;2024-02-26T12:51:54;29.20;;;13.98;;
31537;SDS011;18147;51.952;6.146;2024-02-26T12:54:26;24.35;;;13.27;;
31537;SDS011;18147;51.952;6.146;2024-02-26T12:56:53;26.45;;;13.85;;
31537;SDS011;18147;51.952;6.146;2024-02-26T12:59:19;32.22;;;13.80;;
31537;SDS011;18147;51.952;6.146;2024-02-26T13:01:45;27.23;;;14.10;;
31537;SDS011;18147;51.952;6.146;2024-02-26T13:04:10;24.33;;;13.73;;
31537;SDS011;18147;51.952;6.146;2024-02-26T13:06:36;20.73;;;12.43;;
31537;SDS011;18147;51.952;6.146;2024-02-26T13:09:02;27.58;;;13.50;;
31537;SDS011;18147;51.952;6.146;2024-02-26T13:11:28;24.02;;;13.73;;
31537;SDS011;18147;51.952;6.146;2024-02-26T13:13:54;28.45;;;14.25;;
31537;SDS011;18147;51.952;6.146;2024-02-26T13:16:20;29.90;;;14.55;;
31537;SDS011;18147;51.952;6.146;2024-02-26T13:18:49;22.80;;;12.45;;
31537;SDS011;18147;51.952;6.146;2024-02-26T13:21:15;29.02;;;14.60;;
31537;SDS011;18147;51.952;6.146;2024-02-26T13:23:43;27.70;;;15.00;;
31537;SDS011;18147;51.952;6.146;2024-02-26T13:26:08;24.60;;;13.25;;
31537;SDS011;18147;51.952;6.146;2024-02-26T13:28:38;25.80;;;13.73;;
31537;SDS011;18147;51.952;6.146;2024-02-26T13:31:03;29.15;;;14.40;;
31537;SDS011;18147;51.952;6.146;2024-02-26T13:33:31;27.88;;;14.68;;
31537;SDS011;18147;51.952;6.146;2024-02-26T13:35:57;27.65;;;14.45;;
31537;SDS011;18147;51.952;6.146;2024-02-26T13:38:24;28.10;;;15.68;;
31537;SDS011;18147;51.952;6.146;2024-02-26T13:40:50;30.30;;;16.42;;
31537;SDS011;18147;51.952;6.146;2024-02-26T13:43:17;30.85;;;17.08;;
31537;SDS011;18147;51.952;6.146;2024-02-26T13:45:44;28.05;;;15.60;;
31537;SDS011;18147;51.952;6.146;2024-02-26T13:48:10;27.02;;;15.68;;
31537;SDS011;18147;51.952;6.146;2024-02-26T13:50:36;28.85;;;15.05;;
31537;SDS011;18147;51.952;6.146;2024-02-26T13:53:02;31.33;;;16.60;;
31537;SDS011;18147;51.952;6.146;2024-02-26T13:55:29;29.38;;;15.43;;
31537;SDS011;18147;51.952;6.146;2024-02-26T13:57:57;23.35;;;14.35;;
31537;SDS011;18147;51.952;6.146;2024-02-26T14:00:24;29.73;;;15.20;;
31537;SDS011;18147;51.952;6.146;2024-02-26T14:02:50;22.77;;;13.77;;
31537;SDS011;18147;51.952;6.146;2024-02-26T14:05:16;26.33;;;14.13;;
31537;SDS011;18147;51.952;6.146;2024-02-26T14:07:41;28.35;;;14.55;;
31537;SDS011;18147;51.952;6.146;2024-02-26T14:10:08;30.90;;;14.35;;
31537;SDS011;18147;51.952;6.146;2024-02-26T14:12:37;23.13;;;13.05;;
31537;SDS011;18147;51.952;6.146;2024-02-26T14:15:04;28.25;;;15.23;;
31537;SDS011;18147;51.952;6.146;2024-02-26T14:17:33;26.20;;;14.77;;
31537;SDS011;18147;51.952;6.146;2024-02-26T14:19:58;31.73;;;16.48;;
31537;SDS011;18147;51.952;6.146;2024-02-26T14:22:24;27.88;;;15.43;;
31537;SDS011;18147;51.952;6.146;2024-02-26T14:24:51;27.65;;;14.55;;
31537;SDS011;18147;51.952;6.146;2024-02-26T14:27:17;29.38;;;15.50;;
31537;SDS011;18147;51.952;6.146;2024-02-26T14:29:45;27.90;;;13.82;;
31537;SDS011;18147;51.952;6.146;2024-02-26T14:32:11;24.75;;;13.13;;
31537;SDS011;18147;51.952;6.146;2024-02-26T14:34:37;28.98;;;14.82;;